Time;durP1;ratioP1;P1;durP2;ratioP2;P2;SDS_P1;SDS_P2;PMS_P1;PMS_P2;Temp;Humidity;BMP_temperature;BMP_pressure;BME280_temperature;BME280_humidity;BME280_pressure;Samples;Min_cycle;Max_cycle;Signal;HPM_P1;HPM_P2
2024/04/08 00:00:27;;;;;;;8.30;2.00;;;;;;;-141.50;100.00;63355.56;4893036;29;20095;-79
2024/04/08 00:02:53;;;;;;;10.90;2.05;;;;;;;-141.50;100.00;63355.56;4913709;29;20139;-82
2024/04/08 00:05:20;;;;;;;6.85;2.40;;;;;;;-141.50;100.00;63355.56;4897966;29;20048;-82
2024/04/08 00:07:46;;;;;;;5.20;2.20;;;;;;;-141.50;100.00;63355.56;4905176;29;20060;-84
2024/04/08 00:10:13;;;;;;;4.93;2.03;;;;;;;-141.50;100.00;63355.56;4897973;29;20075;-84
2024/04/08 00:12:42;;;;;;;9.52;2.10;;;;;;;-141.50;100.00;63355.56;4913407;29;20064;-80
2024/04/08 00:15:10;;;;;;;5.40;2.00;;;;;;;-141.50;100.00;63355.56;4913901;29;20449;-81
2024/04/08 00:17:36;;;;;;;6.03;1.63;;;;;;;-141.50;100.00;63355.56;4914739;29;20052;-82
2024/04/08 00:20:04;;;;;;;5.65;2.10;;;;;;;-141.50;100.00;63355.56;4917873;29;20064;-84
2024/04/08 00:22:30;;;;;;;7.78;1.80;;;;;;;-141.50;100.00;63355.56;4898119;29;20052;-82
2024/04/08 00:24:56;;;;;;;8.13;1.95;;;;;;;-141.50;100.00;63355.56;4912885;29;20139;-83
2024/04/08 00:27:22;;;;;;;10.70;2.03;;;;;;;-141.50;100.00;63355.56;4912063;29;20040;-82
2024/04/08 00:29:49;;;;;;;7.28;1.77;;;;;;;-141.50;100.00;63355.56;4913114;29;20056;-82
2024/04/08 00:32:15;;;;;;;8.63;2.10;;;;;;;-141.50;100.00;63355.56;4913050;29;20052;-84
2024/04/08 00:34:41;;;;;;;8.95;2.05;;;;;;;-141.50;100.00;63355.56;4897497;29;20057;-83
2024/04/08 00:37:07;;;;;;;8.10;2.15;;;;;;;-141.50;100.00;63355.56;4908237;29;20050;-80
2024/04/08 00:39:34;;;;;;;5.95;1.45;;;;;;;-141.50;100.00;63355.56;4907325;29;20048;-80
2024/04/08 00:42:01;;;;;;;17.38;2.22;;;;;;;-141.50;100.00;63355.56;4911151;29;20052;-83
2024/04/08 00:44:28;;;;;;;10.20;2.10;;;;;;;-141.50;100.00;63355.56;4900578;29;20462;-84
2024/04/08 00:46:55;;;;;;;7.85;1.80;;;;;;;-141.50;100.00;63355.56;4909944;29;20061;-83
2024/04/08 00:49:22;;;;;;;8.65;1.50;;;;;;;-141.50;100.00;63355.56;4899362;29;20047;-82
2024/04/08 00:51:48;;;;;;;7.88;1.83;;;;;;;-141.50;100.00;63355.56;4894729;29;20064;-80
2024/04/08 00:54:14;;;;;;;6.70;2.05;;;;;;;-141.50;100.00;63355.56;4911271;29;21645;-80
2024/04/08 00:56:43;;;;;;;6.35;2.17;;;;;;;-141.50;100.00;63355.56;4914166;29;20067;-79
2024/04/08 00:59:14;;;;;;;9.32;2.03;;;;;;;-141.50;100.00;63355.56;4915386;29;20143;-80
2024/04/08 01:01:41;;;;;;;4.13;1.70;;;;;;;-141.50;100.00;63355.56;4911000;29;20057;-78
2024/04/08 01:04:08;;;;;;;6.18;1.90;;;;;;;-141.50;100.00;63355.56;4905252;29;20096;-81
2024/04/08 01:06:34;;;;;;;5.18;1.70;;;;;;;-141.50;100.00;63355.56;4896434;29;20040;-79
2024/04/08 01:09:03;;;;;;;7.90;2.42;;;;;;;-141.50;100.00;63355.56;4909755;29;20116;-81
2024/04/08 01:11:29;;;;;;;7.70;2.22;;;;;;;-141.50;100.00;63355.56;4898741;29;20147;-81
2024/04/08 01:13:56;;;;;;;9.15;2.25;;;;;;;-141.50;100.00;63355.56;4898296;29;20108;-81
2024/04/08 01:16:21;;;;;;;8.73;1.88;;;;;;;-141.50;100.00;63355.56;4914597;29;20062;-82
2024/04/08 01:18:47;;;;;;;5.88;1.58;;;;;;;-141.50;100.00;63355.56;4900595;29;20075;-80
2024/04/08 01:21:13;;;;;;;12.85;2.03;;;;;;;-141.50;100.00;63355.56;4911858;29;20274;-80
2024/04/08 01:23:43;;;;;;;7.68;2.00;;;;;;;-141.50;100.00;63355.56;4891724;29;20056;-80
2024/04/08 01:26:09;;;;;;;8.18;1.90;;;;;;;-141.50;100.00;63355.56;4906606;29;20087;-81
2024/04/08 01:28:38;;;;;;;9.43;1.88;;;;;;;-141.50;100.00;63355.56;4878951;29;20104;-83
2024/04/08 01:31:04;;;;;;;6.95;1.98;;;;;;;-141.50;100.00;63355.56;4899051;29;20040;-82
2024/04/08 01:33:31;;;;;;;9.07;2.17;;;;;;;-141.50;100.00;63355.56;4913076;29;20044;-82
2024/04/08 01:36:00;;;;;;;4.32;1.98;;;;;;;-141.50;100.00;63355.56;4898286;29;20063;-80
2024/04/08 01:38:29;;;;;;;3.40;1.77;;;;;;;-141.50;100.00;63355.56;4887199;29;20090;-81
2024/04/08 01:40:56;;;;;;;7.10;1.70;;;;;;;-141.50;100.00;63355.56;4922294;29;20060;-81
2024/04/08 01:43:23;;;;;;;11.77;2.08;;;;;;;-141.50;100.00;63355.56;4907475;29;20044;-81
2024/04/08 01:45:49;;;;;;;8.00;1.60;;;;;;;-141.50;100.00;63355.56;4920528;29;20107;-82
2024/04/08 01:48:15;;;;;;;6.90;2.05;;;;;;;-141.50;100.00;63355.56;4920210;29;20059;-81
2024/04/08 01:50:41;;;;;;;6.00;2.00;;;;;;;-141.50;100.00;63355.56;4904037;29;20056;-79
2024/04/08 01:53:07;;;;;;;6.50;1.73;;;;;;;-141.50;100.00;63355.56;4903216;29;20059;-81
2024/04/08 01:55:33;;;;;;;8.68;1.98;;;;;;;-141.50;100.00;63355.56;4917901;29;20044;-83
2024/04/08 01:57:59;;;;;;;6.15;1.95;;;;;;;-141.50;100.00;63355.56;4895263;29;20141;-81
2024/04/08 02:01:58;;;;;;;8.45;1.92;;;;;;;17.11;100.00;97292.84;5464370;25;20667;-81
2024/04/08 02:04:24;;;;;;;10.13;2.13;;;;;;;17.11;100.00;97292.84;5396232;26;20750;-81
2024/04/08 02:06:51;;;;;;;4.72;1.63;;;;;;;16.77;100.00;97286.44;5428486;26;20031;-82
2024/04/08 02:09:18;;;;;;;8.27;2.08;;;;;;;16.76;100.00;97270.38;5460716;26;20095;-80
2024/04/08 02:11:45;;;;;;;7.55;1.75;;;;;;;16.77;100.00;97269.25;5440322;26;20018;-82
2024/04/08 02:14:12;;;;;;;7.32;1.92;;;;;;;16.78;100.00;97279.00;5429849;26;19998;-81
2024/04/08 02:16:39;;;;;;;6.28;2.10;;;;;;;16.55;100.00;97275.44;5451350;26;20454;-80
2024/04/08 02:19:06;;;;;;;5.40;2.08;;;;;;;16.53;100.00;97272.31;5428134;26;20011;-81
2024/04/08 02:21:33;;;;;;;5.80;1.98;;;;;;;16.63;100.00;97272.50;5426611;26;20076;-81
2024/04/08 02:23:59;;;;;;;9.38;1.92;;;;;;;16.64;100.00;97270.56;5458468;25;20070;-80
2024/04/08 02:26:27;;;;;;;8.30;2.03;;;;;;;16.49;100.00;97272.19;5466771;25;20009;-81
2024/04/08 02:28:58;;;;;;;8.18;2.13;;;;;;;16.34;100.00;97267.59;5478168;26;20002;-82
2024/04/08 02:31:24;;;;;;;6.47;1.73;;;;;;;16.47;100.00;97270.97;5486187;26;20718;-80
2024/04/08 02:33:52;;;;;;;5.03;1.88;;;;;;;16.47;100.00;97276.44;5459643;26;20006;-82
2024/04/08 02:36:19;;;;;;;7.25;2.13;;;;;;;16.32;100.00;97269.91;5476580;25;20802;-81
2024/04/08 02:38:45;;;;;;;11.95;1.95;;;;;;;16.15;100.00;97276.63;5458863;26;20035;-82
2024/04/08 02:41:12;;;;;;;7.05;1.98;;;;;;;16.27;100.00;97274.88;5459261;26;20022;-81
2024/04/08 02:43:39;;;;;;;5.32;1.55;;;;;;;16.19;100.00;97273.94;5426021;26;20045;-81
2024/04/08 02:46:06;;;;;;;7.32;1.70;;;;;;;15.96;100.00;97273.09;5424682;26;20011;-81
2024/04/08 02:48:33;;;;;;;6.50;1.83;;;;;;;15.88;100.00;97274.88;5424727;26;20387;-82
2024/04/08 02:50:59;;;;;;;7.43;1.67;;;;;;;15.97;100.00;97272.75;5436913;26;20010;-81
2024/04/08 02:53:27;;;;;;;7.18;1.60;;;;;;;16.05;100.00;97274.44;5421903;26;20080;-79
2024/04/08 02:56:02;;;;;;;5.18;1.80;;;;;;;16.15;100.00;97262.97;5438285;26;20021;-80
2024/04/08 02:58:33;;;;;;;8.82;2.00;;;;;;;16.09;100.00;97261.66;5423930;26;20021;-81
2024/04/08 03:01:07;;;;;;;11.52;2.17;;;;;;;16.20;100.00;97265.41;5393762;26;19999;-81
2024/04/08 03:03:36;;;;;;;7.57;1.83;;;;;;;16.20;100.00;97254.50;5422678;26;20013;-81
2024/04/08 03:06:11;;;;;;;9.90;1.75;;;;;;;16.23;100.00;97261.94;5431464;25;20464;-81
2024/04/08 03:08:40;;;;;;;5.97;1.70;;;;;;;16.11;100.00;97253.91;5431412;26;20021;-81
2024/04/08 03:11:08;;;;;;;7.30;2.20;;;;;;;16.13;100.00;97261.75;5421807;26;20003;-81
2024/04/08 03:13:36;;;;;;;7.88;2.17;;;;;;;15.93;100.00;97254.69;5409105;26;20012;-81
2024/04/08 03:16:04;;;;;;;11.48;2.00;;;;;;;15.79;100.00;97248.94;5409968;26;20049;-82
2024/04/08 03:18:31;;;;;;;9.95;1.60;;;;;;;15.65;100.00;97252.16;5416690;26;20007;-82
2024/04/08 03:20:59;;;;;;;12.75;1.77;;;;;;;15.70;100.00;97256.53;5407671;26;20014;-80
2024/04/08 03:23:27;;;;;;;9.40;1.70;;;;;;;15.33;100.00;97258.81;5376833;26;20003;-80
2024/04/08 03:26:02;;;;;;;7.78;2.05;;;;;;;15.64;100.00;97250.56;5378490;26;20004;-81
2024/04/08 03:28:29;;;;;;;9.70;2.10;;;;;;;15.67;100.00;97257.22;5409715;26;20065;-80
2024/04/08 03:30:57;;;;;;;6.38;2.00;;;;;;;15.55;100.00;97250.78;5402786;26;19999;-81
2024/04/08 03:33:26;;;;;;;7.70;1.95;;;;;;;15.77;100.00;97246.56;5409791;26;19999;-81
2024/04/08 03:35:55;;;;;;;10.38;1.90;;;;;;;15.44;100.00;97243.44;5472713;26;20045;-80
2024/04/08 03:38:22;;;;;;;6.78;1.73;;;;;;;15.59;100.00;97248.09;5458747;26;20264;-79
2024/04/08 03:41:04;;;;;;;9.27;2.15;;;;;;;15.65;100.00;97251.34;5445761;26;20516;-79
2024/04/08 03:43:31;;;;;;;7.72;1.80;;;;;;;15.69;100.00;97250.28;5454240;26;20002;-79
2024/04/08 03:45:59;;;;;;;6.65;1.90;;;;;;;15.79;100.00;97255.19;5454271;25;20445;-80
2024/04/08 03:48:26;;;;;;;9.93;1.80;;;;;;;15.94;100.00;97259.00;5454219;26;20024;-81
2024/04/08 03:50:53;;;;;;;8.80;2.22;;;;;;;15.93;100.00;97244.56;5444682;26;19999;-80
2024/04/08 03:53:21;;;;;;;9.57;2.65;;;;;;;15.84;100.00;97243.19;5447414;26;20019;-81
2024/04/08 03:55:48;;;;;;;7.57;2.00;;;;;;;15.80;100.00;97250.50;5442224;26;20120;-81
2024/04/08 03:58:15;;;;;;;6.05;1.67;;;;;;;15.92;100.00;97248.47;5444652;26;20022;-82
2024/04/08 04:00:42;;;;;;;8.30;1.98;;;;;;;15.85;100.00;97253.75;5444057;25;20014;-81
2024/04/08 04:03:08;;;;;;;8.27;1.85;;;;;;;16.00;100.00;97252.88;5441215;26;19999;-81
2024/04/08 04:05:36;;;;;;;8.45;2.08;;;;;;;16.02;100.00;97245.16;5441958;26;20011;-79
2024/04/08 04:08:03;;;;;;;11.98;2.35;;;;;;;16.01;100.00;97257.22;5441428;26;20609;-79
2024/04/08 04:10:30;;;;;;;5.35;1.90;;;;;;;16.01;100.00;97248.22;5443852;26;20003;-79
2024/04/08 04:12:59;;;;;;;5.05;1.90;;;;;;;16.07;100.00;97255.00;5442482;26;19995;-81
2024/04/08 04:15:26;;;;;;;11.85;1.90;;;;;;;16.08;100.00;97232.78;5437089;26;20000;-80
2024/04/08 04:17:53;;;;;;;9.98;2.05;;;;;;;16.16;100.00;97250.88;5407389;26;20051;-79
2024/04/08 04:20:23;;;;;;;10.85;2.17;;;;;;;16.12;100.00;97252.75;5443642;26;20014;-81
2024/04/08 04:22:50;;;;;;;10.88;2.70;;;;;;;15.78;100.00;97250.06;5414519;26;20011;-80
2024/04/08 04:25:17;;;;;;;8.32;2.15;;;;;;;15.51;100.00;97276.41;5441818;26;20460;-78
2024/04/08 04:27:44;;;;;;;12.48;2.60;;;;;;;15.19;100.00;97291.97;5442509;25;20025;-80
2024/04/08 04:30:11;;;;;;;8.98;1.95;;;;;;;15.51;100.00;97290.03;5444115;26;20002;-80
2024/04/08 04:32:38;;;;;;;9.95;2.20;;;;;;;15.94;100.00;97272.66;5441817;26;20383;-81
2024/04/08 04:35:04;;;;;;;9.07;1.90;;;;;;;16.11;100.00;97283.16;5442832;26;19999;-80
2024/04/08 04:37:31;;;;;;;8.50;2.30;;;;;;;16.23;100.00;97278.31;5445480;26;20016;-79
2024/04/08 04:39:58;;;;;;;4.10;1.95;;;;;;;16.23;100.00;97277.56;5469983;26;20347;-81
2024/04/08 04:42:25;;;;;;;11.95;2.50;;;;;;;16.27;100.00;97283.88;5443187;25;20002;-80
2024/04/08 04:44:52;;;;;;;13.00;2.15;;;;;;;16.28;100.00;97276.47;5444327;26;20283;-80
2024/04/08 04:47:19;;;;;;;9.52;2.65;;;;;;;16.33;100.00;97276.97;5443960;26;20042;-80
2024/04/08 04:49:46;;;;;;;8.15;2.83;;;;;;;16.09;100.00;97278.06;5440206;26;20090;-81
2024/04/08 04:52:13;;;;;;;16.13;2.92;;;;;;;16.09;100.00;97269.84;5426974;26;20233;-79
2024/04/08 04:54:40;;;;;;;6.13;2.40;;;;;;;16.20;100.00;97262.69;5441480;26;20017;-80
2024/04/08 04:57:07;;;;;;;11.23;2.85;;;;;;;15.90;100.00;97269.84;5440335;26;20021;-78
2024/04/08 04:59:34;;;;;;;12.25;2.92;;;;;;;15.81;100.00;97260.28;5447032;26;20067;-79
2024/04/08 05:02:00;;;;;;;16.83;3.47;;;;;;;16.03;100.00;97278.69;5439826;26;20007;-80
2024/04/08 05:04:27;;;;;;;12.23;3.65;;;;;;;15.80;100.00;97280.53;5440278;26;19998;-79
2024/04/08 05:06:54;;;;;;;9.40;2.80;;;;;;;15.96;100.00;97282.06;5439785;26;19999;-80
2024/04/08 05:09:21;;;;;;;14.13;3.60;;;;;;;15.91;100.00;97289.75;5439709;25;20018;-80
2024/04/08 05:11:48;;;;;;;16.75;3.65;;;;;;;16.10;100.00;97292.50;5441551;26;20517;-78
2024/04/08 05:14:15;;;;;;;15.88;3.70;;;;;;;16.13;100.00;97289.81;5417222;26;20057;-79
2024/04/08 05:16:43;;;;;;;13.30;3.70;;;;;;;16.47;100.00;97290.91;5427658;26;20348;-81
2024/04/08 05:19:11;;;;;;;10.35;2.78;;;;;;;16.49;100.00;97296.00;5454391;26;19999;-80
2024/04/08 05:21:38;;;;;;;11.07;3.10;;;;;;;16.72;100.00;97294.91;5454112;26;19998;-81
2024/04/08 05:24:05;;;;;;;12.43;2.58;;;;;;;16.80;100.00;97306.78;5455964;26;20006;-81
2024/04/08 05:26:32;;;;;;;12.23;2.53;;;;;;;16.89;100.00;97306.53;5440222;26;20320;-79
2024/04/08 05:28:59;;;;;;;8.02;2.33;;;;;;;16.87;100.00;97312.38;5468187;25;20018;-81
2024/04/08 05:31:26;;;;;;;4.68;2.10;;;;;;;16.91;100.00;97320.63;5461124;26;20007;-80
2024/04/08 05:33:53;;;;;;;11.55;2.55;;;;;;;16.98;100.00;97323.50;5428864;26;20003;-81
2024/04/08 05:36:20;;;;;;;13.30;2.53;;;;;;;17.01;100.00;97314.59;5441914;26;20026;-80
2024/04/08 05:38:46;;;;;;;14.73;2.78;;;;;;;17.03;100.00;97320.47;5469455;26;20304;-80
2024/04/08 05:41:13;;;;;;;11.10;2.20;;;;;;;17.08;100.00;97326.44;5442941;26;19999;-80
2024/04/08 05:43:40;;;;;;;11.98;2.85;;;;;;;17.00;100.00;97330.19;5414524;26;20079;-81
2024/04/08 05:46:07;;;;;;;10.68;2.65;;;;;;;17.24;100.00;97327.09;5416113;26;20011;-80
2024/04/08 05:48:34;;;;;;;10.70;2.55;;;;;;;17.30;100.00;97328.38;5374632;26;20011;-82
2024/04/08 05:51:03;;;;;;;9.88;2.35;;;;;;;17.34;100.00;97329.19;5419122;26;20060;-81
2024/04/08 05:53:30;;;;;;;15.00;3.40;;;;;;;17.34;100.00;97339.38;5419401;26;20018;-80
2024/04/08 05:55:57;;;;;;;17.40;5.45;;;;;;;17.39;100.00;97328.13;5419201;26;20459;-81
2024/04/08 05:58:24;;;;;;;25.45;11.82;;;;;;;17.38;100.00;97337.47;5407193;26;20022;-80
2024/04/08 06:00:50;;;;;;;22.60;7.57;;;;;;;17.56;100.00;97346.00;5408403;26;20014;-82
2024/04/08 06:03:17;;;;;;;20.65;6.90;;;;;;;17.51;100.00;97338.06;5387929;26;20012;-82
2024/04/08 06:05:45;;;;;;;13.68;4.72;;;;;;;17.56;100.00;97346.00;5419937;26;20468;-82
2024/04/08 06:08:13;;;;;;;17.48;4.80;;;;;;;17.68;100.00;97343.84;5371805;26;20019;-81
2024/04/08 06:10:44;;;;;;;17.55;5.03;;;;;;;17.66;100.00;97340.69;5431785;26;20467;-80
2024/04/08 06:13:12;;;;;;;12.25;3.97;;;;;;;17.84;100.00;97354.66;5369144;26;20011;-81
2024/04/08 06:15:38;;;;;;;11.80;3.20;;;;;;;17.89;100.00;97346.13;5406206;26;20003;-81
2024/04/08 06:18:06;;;;;;;10.23;3.13;;;;;;;17.96;100.00;97355.22;5419612;26;20026;-82
2024/04/08 06:20:33;;;;;;;11.95;2.88;;;;;;;18.07;100.00;97343.66;5407955;26;20003;-82
2024/04/08 06:23:00;;;;;;;18.48;6.35;;;;;;;18.14;100.00;97335.53;5403178;26;20050;-81
2024/04/08 06:25:27;;;;;;;16.88;5.50;;;;;;;18.15;100.00;97326.13;5405536;26;20454;-81
2024/04/08 06:27:59;;;;;;;15.55;4.45;;;;;;;18.28;100.00;97325.53;5405918;26;20550;-80
2024/04/08 06:30:25;;;;;;;14.77;4.68;;;;;;;18.35;100.00;97325.63;5422768;26;20039;-81
2024/04/08 06:32:54;;;;;;;20.25;3.45;;;;;;;18.40;100.00;97317.06;5405879;26;20237;-82
2024/04/08 06:35:21;;;;;;;13.10;3.13;;;;;;;18.49;100.00;97312.13;5453189;26;20470;-80
2024/04/08 06:37:48;;;;;;;9.13;2.63;;;;;;;18.57;100.00;97319.28;5440637;26;20006;-82
2024/04/08 06:40:15;;;;;;;18.67;4.13;;;;;;;18.68;100.00;97303.72;5372746;26;20034;-82
2024/04/08 06:42:42;;;;;;;11.77;3.47;;;;;;;18.89;100.00;97310.59;5441665;26;20017;-81
2024/04/08 06:45:09;;;;;;;11.93;3.60;;;;;;;19.03;100.00;97311.53;5445293;26;20009;-82
2024/04/08 06:47:36;;;;;;;8.25;2.63;;;;;;;19.20;100.00;97321.09;5452825;26;20003;-80
2024/04/08 06:50:03;;;;;;;11.10;2.50;;;;;;;19.38;100.00;97321.28;5442526;26;20112;-80
2024/04/08 06:52:30;;;;;;;11.52;2.90;;;;;;;19.42;100.00;97316.59;5436605;26;20003;-79
2024/04/08 06:54:57;;;;;;;10.65;2.75;;;;;;;19.62;100.00;97326.94;5413348;26;20110;-79
2024/04/08 06:57:25;;;;;;;9.10;2.47;;;;;;;19.71;98.69;97316.44;5454685;26;20074;-81
2024/04/08 06:59:52;;;;;;;12.85;2.72;;;;;;;19.93;95.35;97336.59;5418133;26;20021;-79
2024/04/08 07:02:19;;;;;;;8.30;2.10;;;;;;;19.97;94.87;97334.66;5457434;26;20035;-80
2024/04/08 07:04:46;;;;;;;10.38;2.45;;;;;;;20.10;93.58;97344.16;5454772;26;20003;-81
2024/04/08 07:07:13;;;;;;;12.15;2.17;;;;;;;20.20;93.57;97350.88;5443275;25;19998;-80
2024/04/08 07:09:41;;;;;;;16.00;2.42;;;;;;;20.12;89.83;97341.03;5443489;26;20011;-80
2024/04/08 07:12:08;;;;;;;15.38;3.10;;;;;;;20.26;93.22;97335.66;5443135;26;20083;-81
2024/04/08 07:14:35;;;;;;;14.02;3.00;;;;;;;20.42;93.48;97338.84;5412665;26;20330;-82
2024/04/08 07:17:03;;;;;;;15.68;3.17;;;;;;;20.46;91.20;97342.41;5442651;26;19999;-80
2024/04/08 07:19:30;;;;;;;10.73;2.53;;;;;;;20.52;87.31;97338.88;5442994;26;20003;-79
2024/04/08 07:21:56;;;;;;;15.05;2.25;;;;;;;20.61;85.56;97338.53;5442143;26;20003;-80
2024/04/08 07:24:23;;;;;;;19.95;3.15;;;;;;;20.74;84.19;97341.72;5444477;26;19999;-79
2024/04/08 07:26:50;;;;;;;7.88;2.10;;;;;;;20.91;84.55;97344.53;5442937;26;19999;-79
2024/04/08 07:29:19;;;;;;;9.73;2.33;;;;;;;21.06;87.31;97345.38;5467226;26;20006;-81
2024/04/08 07:31:47;;;;;;;11.05;2.45;;;;;;;21.15;83.36;97334.78;5478513;26;20380;-81
2024/04/08 07:34:19;;;;;;;10.70;2.30;;;;;;;21.34;82.28;97336.38;5429134;26;20102;-79
2024/04/08 07:36:48;;;;;;;10.48;2.13;;;;;;;21.47;77.11;97334.81;5441869;25;20010;-80
2024/04/08 07:39:15;;;;;;;7.63;2.17;;;;;;;21.59;78.51;97328.91;5441928;26;20026;-79
2024/04/08 07:41:42;;;;;;;11.32;2.15;;;;;;;21.68;75.04;97332.84;5472027;26;20057;-81
2024/04/08 07:44:09;;;;;;;13.00;2.40;;;;;;;21.84;76.79;97334.38;5441992;26;19999;-79
2024/04/08 07:46:37;;;;;;;11.60;2.22;;;;;;;22.00;78.64;97341.09;5443880;26;20003;-78
2024/04/08 07:49:04;;;;;;;9.13;2.17;;;;;;;22.06;72.86;97339.53;5454479;26;20003;-80
2024/04/08 07:51:30;;;;;;;15.27;2.65;;;;;;;22.23;71.37;97335.94;5454033;26;20313;-79
2024/04/08 07:53:57;;;;;;;15.65;2.70;;;;;;;22.35;74.17;97342.97;5444136;26;20010;-81
2024/04/08 07:56:27;;;;;;;10.43;1.85;;;;;;;22.58;70.76;97331.47;5470061;26;20003;-81
2024/04/08 07:58:54;;;;;;;6.90;1.63;;;;;;;22.63;69.07;97331.88;5469303;26;20449;-80
2024/04/08 08:01:22;;;;;;;16.00;2.83;;;;;;;22.81;64.57;97338.09;5451296;26;20087;-80
2024/04/08 08:03:49;;;;;;;13.52;2.30;;;;;;;22.97;65.27;97332.09;5440318;25;20519;-82
2024/04/08 08:06:16;;;;;;;14.05;2.10;;;;;;;23.07;63.28;97325.75;5456290;26;20027;-80
2024/04/08 08:08:43;;;;;;;12.90;2.25;;;;;;;23.16;60.66;97326.06;5409667;26;20011;-80
2024/04/08 08:11:10;;;;;;;8.98;2.13;;;;;;;23.28;59.90;97317.28;5439359;26;20457;-79
2024/04/08 08:13:38;;;;;;;11.23;2.22;;;;;;;23.25;61.29;97300.75;5412546;26;20014;-82
2024/04/08 08:16:05;;;;;;;8.57;2.20;;;;;;;23.41;60.61;97310.13;5425448;26;20007;-82
2024/04/08 08:18:34;;;;;;;9.95;2.10;;;;;;;23.64;60.74;97289.41;5425861;26;20035;-81
2024/04/08 08:21:02;;;;;;;13.25;2.22;;;;;;;23.89;60.31;97296.28;5425931;26;20406;-81
2024/04/08 08:23:29;;;;;;;9.55;1.88;;;;;;;24.12;57.78;97295.66;5453189;26;20021;-79
2024/04/08 08:25:57;;;;;;;17.25;2.95;;;;;;;24.40;55.92;97313.91;5412866;26;20301;-79
2024/04/08 08:28:24;;;;;;;12.38;2.30;;;;;;;24.54;55.86;97311.78;5444963;26;20003;-81
2024/04/08 08:30:52;;;;;;;11.45;2.40;;;;;;;24.61;53.50;97314.47;5442970;26;20014;-82
2024/04/08 08:33:22;;;;;;;10.00;1.80;;;;;;;24.58;53.66;97304.22;5392034;26;20007;-81
2024/04/08 08:35:50;;;;;;;12.40;2.40;;;;;;;24.62;53.11;97310.47;5399314;26;20114;-79
2024/04/08 08:38:17;;;;;;;12.38;2.00;;;;;;;24.74;53.59;97312.72;5375816;26;20018;-81
2024/04/08 08:40:45;;;;;;;10.07;2.17;;;;;;;24.96;53.67;97306.91;5379175;26;20015;-82
2024/04/08 08:43:11;;;;;;;9.70;1.98;;;;;;;25.14;52.10;97291.59;5394037;26;20015;-79
2024/04/08 08:45:46;;;;;;;7.15;2.03;;;;;;;25.36;52.45;97306.69;5353238;26;20008;-81
2024/04/08 08:48:14;;;;;;;9.50;1.90;;;;;;;25.68;48.51;97310.97;5415646;26;20006;-80
2024/04/08 08:50:45;;;;;;;9.43;1.90;;;;;;;25.80;46.98;97302.81;5427227;26;20014;-80
2024/04/08 08:53:12;;;;;;;10.75;1.83;;;;;;;26.08;47.53;97306.28;5391432;26;19999;-80
2024/04/08 08:55:40;;;;;;;8.93;1.73;;;;;;;26.12;46.43;97307.81;5352260;26;20089;-80
2024/04/08 08:58:09;;;;;;;11.80;1.90;;;;;;;26.20;46.39;97289.03;5391185;26;20349;-81
2024/04/08 09:00:40;;;;;;;12.77;1.83;;;;;;;26.30;45.94;97294.38;5393252;26;20483;-80
2024/04/08 09:03:12;;;;;;;10.38;1.65;;;;;;;26.37;46.30;97291.47;5417331;26;20023;-80
2024/04/08 09:05:39;;;;;;;12.82;1.73;;;;;;;26.63;45.24;97297.28;5385772;26;20083;-80
2024/04/08 09:08:06;;;;;;;11.13;1.90;;;;;;;26.71;45.30;97282.03;5437482;26;20007;-81
2024/04/08 09:10:47;;;;;;;11.52;1.88;;;;;;;26.95;45.39;97284.28;5398919;26;20007;-81
2024/04/08 09:13:26;;;;;;;10.23;1.85;;;;;;;27.09;43.19;97284.00;5380929;26;20034;-82
2024/04/08 09:15:53;;;;;;;12.57;2.05;;;;;;;27.27;43.87;97280.78;5364270;26;20008;-82
2024/04/08 09:18:21;;;;;;;7.00;1.48;;;;;;;27.40;42.11;97284.47;5466849;26;20526;-82
2024/04/08 09:20:49;;;;;;;6.88;2.30;;;;;;;27.55;42.15;97276.56;5404975;26;20508;-81
2024/04/08 09:23:16;;;;;;;14.50;1.70;;;;;;;27.44;42.72;97287.16;5469877;26;20021;-82
2024/04/08 09:25:43;;;;;;;10.75;1.73;;;;;;;27.44;42.91;97267.69;5456327;26;20002;-80
2024/04/08 09:28:11;;;;;;;10.38;1.73;;;;;;;27.51;45.10;97264.75;5442595;26;20368;-80
2024/04/08 09:30:39;;;;;;;7.30;1.77;;;;;;;27.79;42.29;97256.47;5416361;26;20054;-79
2024/04/08 09:33:10;;;;;;;11.88;1.70;;;;;;;27.83;40.63;97261.91;5455152;26;20006;-80
2024/04/08 09:35:42;;;;;;;12.60;2.17;;;;;;;27.86;39.55;97269.38;5478159;26;20051;-80
2024/04/08 09:38:12;;;;;;;9.88;2.03;;;;;;;27.82;40.23;97274.28;5438540;26;20055;-80
2024/04/08 09:40:42;;;;;;;10.25;1.80;;;;;;;28.02;41.13;97266.59;5456785;26;20002;-81
2024/04/08 09:43:09;;;;;;;7.32;1.70;;;;;;;27.91;41.18;97254.94;5435429;26;20006;-82
2024/04/08 09:45:41;;;;;;;14.10;2.28;;;;;;;28.22;40.80;97267.25;5464699;26;20059;-81
2024/04/08 09:48:13;;;;;;;10.88;1.80;;;;;;;28.32;42.68;97273.72;5476476;26;20009;-82
2024/04/08 09:50:43;;;;;;;11.23;2.28;;;;;;;28.41;40.76;97262.75;5464854;26;20077;-82
2024/04/08 09:53:10;;;;;;;10.55;1.65;;;;;;;28.33;39.71;97262.16;5442667;26;20003;-81
2024/04/08 09:55:40;;;;;;;9.60;1.42;;;;;;;28.19;38.79;97250.63;5442991;26;20006;-82
2024/04/08 09:58:17;;;;;;;13.23;1.90;;;;;;;28.18;38.82;97260.22;5445564;26;20075;-81
2024/04/08 10:00:45;;;;;;;9.18;1.77;;;;;;;27.87;42.93;97262.63;5439152;26;20282;-80
2024/04/08 10:03:18;;;;;;;14.65;2.00;;;;;;;27.71;42.26;97268.19;5439261;26;20002;-80
2024/04/08 10:05:46;;;;;;;9.48;1.75;;;;;;;28.28;43.15;97264.69;5469736;26;20213;-80
2024/04/08 10:08:13;;;;;;;8.05;1.65;;;;;;;28.69;40.25;97245.22;5450499;21;20006;-79
2024/04/08 10:10:41;;;;;;;6.93;1.88;;;;;;;28.49;42.08;97247.38;5282801;26;20010;-80
2024/04/08 10:13:09;;;;;;;10.35;1.30;;;;;;;28.53;38.51;97250.03;5269227;27;20015;-79
2024/04/08 10:15:37;;;;;;;9.82;1.65;;;;;;;29.10;40.33;97238.75;5280039;27;20010;-80
2024/04/08 10:18:06;;;;;;;9.40;1.80;;;;;;;29.38;39.47;97235.06;5274521;27;20021;-80
2024/04/08 10:20:33;;;;;;;13.88;1.75;;;;;;;29.52;36.59;97236.63;5279467;27;20006;-80
2024/04/08 10:23:00;;;;;;;10.90;1.80;;;;;;;29.95;38.24;97235.94;5279826;27;20218;-80
2024/04/08 10:25:30;;;;;;;8.25;1.58;;;;;;;29.89;34.68;97226.59;5284730;27;20010;-80
2024/04/08 10:28:04;;;;;;;9.20;1.60;;;;;;;29.43;36.32;97228.94;5283486;27;20006;-80
2024/04/08 10:30:36;;;;;;;9.77;1.40;;;;;;;29.33;35.94;97226.50;5279041;27;20007;-80
2024/04/08 10:33:04;;;;;;;11.32;1.70;;;;;;;29.38;36.18;97229.50;5276446;27;20015;-80
2024/04/08 10:35:31;;;;;;;14.73;2.00;;;;;;;29.44;34.85;97230.50;5280773;27;20059;-80
2024/04/08 10:37:58;;;;;;;10.30;1.67;;;;;;;29.46;36.60;97228.03;5280832;26;20002;-80
2024/04/08 10:40:26;;;;;;;7.38;1.77;;;;;;;29.40;32.61;97224.25;5283113;26;20021;-81
2024/04/08 10:42:55;;;;;;;10.82;1.60;;;;;;;28.88;29.10;97218.38;5280363;26;20062;-80
2024/04/08 10:45:22;;;;;;;7.63;1.60;;;;;;;28.98;31.02;97208.91;5286005;27;20003;-79
2024/04/08 10:47:58;;;;;;;10.57;1.90;;;;;;;29.21;31.05;97211.34;5287645;27;19998;-79
2024/04/08 10:50:28;;;;;;;8.70;1.98;;;;;;;29.53;32.06;97208.25;5287858;27;20002;-80
2024/04/08 10:52:55;;;;;;;5.28;1.13;;;;;;;29.99;32.37;97205.91;5285528;27;19999;-80
2024/04/08 10:55:22;;;;;;;11.55;1.88;;;;;;;30.34;31.98;97187.84;5268390;27;20008;-79
2024/04/08 10:57:49;;;;;;;6.07;1.67;;;;;;;30.89;30.83;97186.13;5254185;27;20017;-79
2024/04/08 11:00:16;;;;;;;9.75;2.20;;;;;;;31.37;30.85;97190.16;5285778;27;20069;-79
2024/04/08 11:02:43;;;;;;;7.68;1.38;;;;;;;31.26;29.79;97187.03;5286272;27;20035;-81
2024/04/08 11:05:14;;;;;;;13.25;1.80;;;;;;;31.56;30.01;97191.00;5311518;26;20010;-80
2024/04/08 11:07:41;;;;;;;6.50;1.50;;;;;;;31.54;28.94;97173.91;5289853;27;19994;-80
2024/04/08 11:10:12;;;;;;;8.23;1.75;;;;;;;30.92;32.38;97176.81;5258855;27;20087;-79
2024/04/08 11:12:40;;;;;;;8.35;1.85;;;;;;;31.26;30.67;97182.22;5278723;27;20003;-79
2024/04/08 11:15:09;;;;;;;9.40;1.85;;;;;;;31.78;29.42;97184.03;5281157;27;20002;-80
2024/04/08 11:17:36;;;;;;;7.40;1.42;;;;;;;32.07;29.59;97185.59;5284950;27;19998;-80
2024/04/08 11:20:08;;;;;;;12.48;2.38;;;;;;;32.13;29.85;97192.91;5284764;27;20006;-80
2024/04/08 11:22:35;;;;;;;14.57;1.70;;;;;;;32.02;28.87;97179.38;5285744;26;20006;-78
2024/04/08 11:25:04;;;;;;;5.78;1.45;;;;;;;31.96;29.72;97175.63;5283898;27;19998;-79